sensor_id;sensor_type;location;lat;lon;timestamp;pressure;altitude;pressure_sealevel;temperature;humidity
19831;BME280;10076;52.008;4.708;2023-11-21T00:00:08;101120.50;;;10.47;100.00
19831;BME280;10076;52.008;4.708;2023-11-21T00:02:36;101121.56;;;10.44;100.00
19831;BME280;10076;52.008;4.708;2023-11-21T00:05:03;101117.31;;;10.42;100.00
19831;BME280;10076;52.008;4.708;2023-11-21T00:07:29;101120.16;;;10.39;100.00
19831;BME280;10076;52.008;4.708;2023-11-21T00:09:56;101121.31;;;10.35;100.00
19831;BME280;10076;52.008;4.708;2023-11-21T00:12:21;101130.72;;;10.39;100.00
19831;BME280;10076;52.008;4.708;2023-11-21T00:14:46;101131.47;;;10.41;100.00
19831;BME280;10076;52.008;4.708;2023-11-21T00:17:12;101133.59;;;10.48;100.00
19831;BME280;10076;52.008;4.708;2023-11-21T00:19:37;101128.53;;;10.45;100.00
19831;BME280;10076;52.008;4.708;2023-11-21T00:22:02;101130.44;;;10.56;100.00
19831;BME280;10076;52.008;4.708;2023-11-21T00:24:28;101131.72;;;10.50;100.00
19831;BME280;10076;52.008;4.708;2023-11-21T00:26:53;101128.94;;;10.39;100.00
19831;BME280;10076;52.008;4.708;2023-11-21T00:29:19;101133.84;;;10.58;100.00
19831;BME280;10076;52.008;4.708;2023-11-21T00:31:44;101133.44;;;10.64;100.00
19831;BME280;10076;52.008;4.708;2023-11-21T00:34:11;101132.81;;;10.73;100.00
19831;BME280;10076;52.008;4.708;2023-11-21T00:36:37;101134.00;;;10.81;100.00
19831;BME280;10076;52.008;4.708;2023-11-21T00:39:03;101139.25;;;10.69;100.00
19831;BME280;10076;52.008;4.708;2023-11-21T00:41:28;101137.91;;;10.76;100.00
19831;BME280;10076;52.008;4.708;2023-11-21T00:43:54;101137.44;;;10.69;100.00
19831;BME280;10076;52.008;4.708;2023-11-21T00:46:20;101130.94;;;10.75;100.00
19831;BME280;10076;52.008;4.708;2023-11-21T00:48:46;101134.53;;;10.86;100.00
19831;BME280;10076;52.008;4.708;2023-11-21T00:51:11;101136.03;;;10.90;100.00
19831;BME280;10076;52.008;4.708;2023-11-21T00:53:37;101143.03;;;10.91;100.00
19831;BME280;10076;52.008;4.708;2023-11-21T00:56:02;101149.56;;;10.98;100.00
19831;BME280;10076;52.008;4.708;2023-11-21T00:58:28;101150.94;;;10.91;100.00
19831;BME280;10076;52.008;4.708;2023-11-21T01:00:54;101146.38;;;10.93;100.00
19831;BME280;10076;52.008;4.708;2023-11-21T01:03:19;101151.06;;;11.02;100.00
19831;BME280;10076;52.008;4.708;2023-11-21T01:05:45;101156.66;;;11.10;100.00
19831;BME280;10076;52.008;4.708;2023-11-21T01:08:11;101154.38;;;11.18;100.00
19831;BME280;10076;52.008;4.708;2023-11-21T01:10:36;101158.06;;;11.28;100.00
19831;BME280;10076;52.008;4.708;2023-11-21T01:13:02;101151.66;;;11.32;100.00
19831;BME280;10076;52.008;4.708;2023-11-21T01:15:29;101160.94;;;11.37;100.00
19831;BME280;10076;52.008;4.708;2023-11-21T01:17:54;101156.59;;;11.36;100.00
19831;BME280;10076;52.008;4.708;2023-11-21T01:20:20;101153.31;;;11.33;100.00
19831;BME280;10076;52.008;4.708;2023-11-21T01:22:45;101154.47;;;11.41;100.00
19831;BME280;10076;52.008;4.708;2023-11-21T01:25:10;101169.63;;;11.52;100.00
19831;BME280;10076;52.008;4.708;2023-11-21T01:27:36;101173.44;;;11.48;100.00
19831;BME280;10076;52.008;4.708;2023-11-21T01:30:05;101183.13;;;11.47;100.00
19831;BME280;10076;52.008;4.708;2023-11-21T01:32:32;101176.78;;;11.50;100.00
19831;BME280;10076;52.008;4.708;2023-11-21T01:34:58;101177.38;;;11.55;100.00
19831;BME280;10076;52.008;4.708;2023-11-21T01:37:24;101192.72;;;11.62;100.00
19831;BME280;10076;52.008;4.708;2023-11-21T01:39:52;101191.66;;;11.65;100.00
19831;BME280;10076;52.008;4.708;2023-11-21T01:42:18;101193.88;;;11.71;100.00
19831;BME280;10076;52.008;4.708;2023-11-21T01:44:43;101198.84;;;11.75;100.00
19831;BME280;10076;52.008;4.708;2023-11-21T01:47:09;101205.94;;;11.74;100.00
19831;BME280;10076;52.008;4.708;2023-11-21T01:49:36;101204.03;;;11.76;100.00
19831;BME280;10076;52.008;4.708;2023-11-21T01:52:03;101202.66;;;11.83;100.00
19831;BME280;10076;52.008;4.708;2023-11-21T01:54:29;101206.88;;;11.86;100.00
19831;BME280;10076;52.008;4.708;2023-11-21T01:57:01;101208.91;;;11.82;100.00
19831;BME280;10076;52.008;4.708;2023-11-21T01:59:37;101208.66;;;11.85;100.00
19831;BME280;10076;52.008;4.708;2023-11-21T02:02:04;101208.66;;;11.85;100.00
19831;BME280;10076;52.008;4.708;2023-11-21T02:04:32;101215.47;;;11.89;100.00
19831;BME280;10076;52.008;4.708;2023-11-21T02:06:57;101216.09;;;11.80;100.00
19831;BME280;10076;52.008;4.708;2023-11-21T02:09:25;101211.44;;;11.72;100.00
19831;BME280;10076;52.008;4.708;2023-11-21T02:11:51;101214.72;;;11.75;100.00
19831;BME280;10076;52.008;4.708;2023-11-21T02:14:16;101218.31;;;11.86;100.00
19831;BME280;10076;52.008;4.708;2023-11-21T02:16:45;101221.50;;;11.79;100.00
19831;BME280;10076;52.008;4.708;2023-11-21T02:19:17;101218.19;;;11.88;100.00
19831;BME280;10076;52.008;4.708;2023-11-21T02:21:45;101218.84;;;11.79;100.00
19831;BME280;10076;52.008;4.708;2023-11-21T02:24:10;101213.00;;;11.86;100.00
19831;BME280;10076;52.008;4.708;2023-11-21T02:26:35;101222.97;;;11.83;100.00
19831;BME280;10076;52.008;4.708;2023-11-21T02:29:01;101230.19;;;11.81;100.00
19831;BME280;10076;52.008;4.708;2023-11-21T02:31:29;101222.66;;;11.75;100.00
19831;BME280;10076;52.008;4.708;2023-11-21T02:33:55;101220.09;;;11.61;100.00
19831;BME280;10076;52.008;4.708;2023-11-21T02:36:20;101228.78;;;11.63;100.00
19831;BME280;10076;52.008;4.708;2023-11-21T02:38:47;101230.38;;;11.66;100.00
19831;BME280;10076;52.008;4.708;2023-11-21T02:41:12;101231.66;;;11.73;100.00
19831;BME280;10076;52.008;4.708;2023-11-21T02:43:38;101230.50;;;11.76;100.00
19831;BME280;10076;52.008;4.708;2023-11-21T02:46:03;101226.56;;;11.82;100.00
19831;BME280;10076;52.008;4.708;2023-11-21T02:48:29;101232.59;;;11.84;100.00
19831;BME280;10076;52.008;4.708;2023-11-21T02:50:55;101243.81;;;11.87;100.00
19831;BME280;10076;52.008;4.708;2023-11-21T02:53:21;101232.91;;;11.92;100.00
19831;BME280;10076;52.008;4.708;2023-11-21T02:55:46;101230.69;;;11.98;100.00
19831;BME280;10076;52.008;4.708;2023-11-21T02:58:11;101230.38;;;12.03;100.00
19831;BME280;10076;52.008;4.708;2023-11-21T03:00:37;101235.78;;;12.01;100.00
19831;BME280;10076;52.008;4.708;2023-11-21T03:03:02;101240.41;;;12.10;100.00
19831;BME280;10076;52.008;4.708;2023-11-21T03:05:28;101247.59;;;12.08;100.00
19831;BME280;10076;52.008;4.708;2023-11-21T03:07:54;101240.84;;;12.04;100.00
19831;BME280;10076;52.008;4.708;2023-11-21T03:10:19;101238.19;;;12.04;100.00
19831;BME280;10076;52.008;4.708;2023-11-21T03:12:44;101241.59;;;12.06;100.00
19831;BME280;10076;52.008;4.708;2023-11-21T03:15:10;101237.53;;;12.13;100.00
19831;BME280;10076;52.008;4.708;2023-11-21T03:17:35;101250.56;;;12.16;100.00
19831;BME280;10076;52.008;4.708;2023-11-21T03:20:01;101248.44;;;12.21;100.00
19831;BME280;10076;52.008;4.708;2023-11-21T03:22:26;101250.97;;;12.23;100.00
19831;BME280;10076;52.008;4.708;2023-11-21T03:24:51;101248.66;;;12.18;100.00
19831;BME280;10076;52.008;4.708;2023-11-21T03:27:17;101240.63;;;12.20;100.00
19831;BME280;10076;52.008;4.708;2023-11-21T03:29:43;101248.69;;;11.93;100.00
19831;BME280;10076;52.008;4.708;2023-11-21T03:32:09;101249.97;;;12.00;100.00
19831;BME280;10076;52.008;4.708;2023-11-21T03:34:34;101254.31;;;12.01;100.00
19831;BME280;10076;52.008;4.708;2023-11-21T03:37:00;101258.81;;;12.12;100.00
19831;BME280;10076;52.008;4.708;2023-11-21T03:39:25;101261.34;;;12.13;100.00
19831;BME280;10076;52.008;4.708;2023-11-21T03:41:51;101256.41;;;12.09;100.00
19831;BME280;10076;52.008;4.708;2023-11-21T03:44:17;101269.66;;;11.72;100.00
19831;BME280;10076;52.008;4.708;2023-11-21T03:46:43;101263.72;;;11.80;100.00
19831;BME280;10076;52.008;4.708;2023-11-21T03:49:09;101272.69;;;11.78;100.00
19831;BME280;10076;52.008;4.708;2023-11-21T03:51:34;101273.44;;;11.68;100.00
19831;BME280;10076;52.008;4.708;2023-11-21T03:53:59;101274.09;;;11.83;100.00
19831;BME280;10076;52.008;4.708;2023-11-21T03:56:25;101275.13;;;11.56;100.00
19831;BME280;10076;52.008;4.708;2023-11-21T03:58:50;101279.59;;;11.68;100.00
19831;BME280;10076;52.008;4.708;2023-11-21T04:01:22;101289.22;;;11.69;100.00
19831;BME280;10076;52.008;4.708;2023-11-21T04:03:49;101291.09;;;11.79;100.00
19831;BME280;10076;52.008;4.708;2023-11-21T04:06:14;101291.22;;;11.90;100.00
19831;BME280;10076;52.008;4.708;2023-11-21T04:08:40;101291.66;;;11.97;100.00
19831;BME280;10076;52.008;4.708;2023-11-21T04:11:05;101298.75;;;12.09;100.00
19831;BME280;10076;52.008;4.708;2023-11-21T04:13:30;101296.53;;;12.15;100.00
19831;BME280;10076;52.008;4.708;2023-11-21T04:15:56;101302.13;;;12.23;100.00
19831;BME280;10076;52.008;4.708;2023-11-21T04:18:21;101307.97;;;12.16;100.00
19831;BME280;10076;52.008;4.708;2023-11-21T04:20:48;101309.66;;;12.17;100.00
19831;BME280;10076;52.008;4.708;2023-11-21T04:23:13;101308.56;;;12.19;100.00
19831;BME280;10076;52.008;4.708;2023-11-21T04:25:39;101317.69;;;12.15;100.00
19831;BME280;10076;52.008;4.708;2023-11-21T04:28:04;101320.66;;;12.23;100.00
19831;BME280;10076;52.008;4.708;2023-11-21T04:30:29;101329.75;;;12.19;100.00
19831;BME280;10076;52.008;4.708;2023-11-21T04:32:55;101330.94;;;12.15;100.00
19831;BME280;10076;52.008;4.708;2023-11-21T04:35:20;101328.53;;;12.12;100.00
19831;BME280;10076;52.008;4.708;2023-11-21T04:37:45;101338.69;;;12.18;100.00
19831;BME280;10076;52.008;4.708;2023-11-21T04:40:11;101338.25;;;12.24;100.00
19831;BME280;10076;52.008;4.708;2023-11-21T04:42:37;101331.38;;;11.97;100.00
19831;BME280;10076;52.008;4.708;2023-11-21T04:45:04;101329.78;;;11.94;100.00
19831;BME280;10076;52.008;4.708;2023-11-21T04:47:33;101341.84;;;11.86;100.00
19831;BME280;10076;52.008;4.708;2023-11-21T04:49:58;101338.66;;;11.93;100.00
19831;BME280;10076;52.008;4.708;2023-11-21T04:52:24;101342.59;;;12.00;100.00
19831;BME280;10076;52.008;4.708;2023-11-21T04:54:49;101348.31;;;12.07;100.00
19831;BME280;10076;52.008;4.708;2023-11-21T04:57:14;101351.16;;;12.16;100.00
19831;BME280;10076;52.008;4.708;2023-11-21T04:59:40;101364.91;;;12.34;100.00
19831;BME280;10076;52.008;4.708;2023-11-21T05:02:05;101360.28;;;12.25;100.00
19831;BME280;10076;52.008;4.708;2023-11-21T05:04:31;101365.56;;;12.12;100.00
19831;BME280;10076;52.008;4.708;2023-11-21T05:06:56;101374.34;;;12.25;100.00
19831;BME280;10076;52.008;4.708;2023-11-21T05:09:21;101378.91;;;12.23;100.00
19831;BME280;10076;52.008;4.708;2023-11-21T05:11:47;101370.53;;;12.41;100.00
19831;BME280;10076;52.008;4.708;2023-11-21T05:14:12;101364.75;;;12.24;100.00
19831;BME280;10076;52.008;4.708;2023-11-21T05:16:39;101373.81;;;11.95;100.00
19831;BME280;10076;52.008;4.708;2023-11-21T05:19:04;101370.41;;;11.81;100.00
19831;BME280;10076;52.008;4.708;2023-11-21T05:21:30;101369.13;;;11.86;100.00
19831;BME280;10076;52.008;4.708;2023-11-21T05:23:58;101381.81;;;11.81;100.00
19831;BME280;10076;52.008;4.708;2023-11-21T05:26:24;101383.66;;;11.93;100.00
19831;BME280;10076;52.008;4.708;2023-11-21T05:28:49;101384.00;;;12.01;100.00
19831;BME280;10076;52.008;4.708;2023-11-21T05:31:15;101390.31;;;11.99;100.00
19831;BME280;10076;52.008;4.708;2023-11-21T05:33:41;101396.47;;;11.99;100.00
19831;BME280;10076;52.008;4.708;2023-11-21T05:36:07;101401.75;;;11.99;100.00
19831;BME280;10076;52.008;4.708;2023-11-21T05:38:33;101404.09;;;12.04;100.00
19831;BME280;10076;52.008;4.708;2023-11-21T05:40:58;101401.63;;;11.88;100.00
19831;BME280;10076;52.008;4.708;2023-11-21T05:43:23;101397.94;;;11.91;100.00
19831;BME280;10076;52.008;4.708;2023-11-21T05:45:49;101406.22;;;12.11;100.00
19831;BME280;10076;52.008;4.708;2023-11-21T05:48:14;101418.72;;;12.09;100.00
19831;BME280;10076;52.008;4.708;2023-11-21T05:50:40;101404.75;;;12.07;100.00
19831;BME280;10076;52.008;4.708;2023-11-21T05:53:06;101418.16;;;11.92;100.00
19831;BME280;10076;52.008;4.708;2023-11-21T05:55:32;101420.16;;;11.88;100.00
19831;BME280;10076;52.008;4.708;2023-11-21T05:57:57;101425.59;;;11.99;100.00
19831;BME280;10076;52.008;4.708;2023-11-21T06:00:22;101433.72;;;11.96;100.00
19831;BME280;10076;52.008;4.708;2023-11-21T06:02:51;101432.63;;;11.86;100.00
19831;BME280;10076;52.008;4.708;2023-11-21T06:05:19;101443.22;;;11.86;100.00
19831;BME280;10076;52.008;4.708;2023-11-21T06:07:44;101440.69;;;11.85;100.00
19831;BME280;10076;52.008;4.708;2023-11-21T06:10:11;101454.47;;;11.90;100.00
19831;BME280;10076;52.008;4.708;2023-11-21T06:12:40;101454.69;;;11.87;100.00
19831;BME280;10076;52.008;4.708;2023-11-21T06:15:08;101457.66;;;11.95;100.00
19831;BME280;10076;52.008;4.708;2023-11-21T06:17:34;101451.84;;;12.02;100.00
19831;BME280;10076;52.008;4.708;2023-11-21T06:20:08;101460.19;;;11.96;100.00
19831;BME280;10076;52.008;4.708;2023-11-21T06:22:37;101469.13;;;12.08;100.00
19831;BME280;10076;52.008;4.708;2023-11-21T06:25:03;101458.97;;;12.14;100.00
19831;BME280;10076;52.008;4.708;2023-11-21T06:27:34;101463.94;;;12.06;100.00
19831;BME280;10076;52.008;4.708;2023-11-21T06:30:01;101465.34;;;12.24;100.00
19831;BME280;10076;52.008;4.708;2023-11-21T06:32:26;101460.66;;;12.15;100.00
19831;BME280;10076;52.008;4.708;2023-11-21T06:34:55;101463.00;;;12.20;100.00
19831;BME280;10076;52.008;4.708;2023-11-21T06:37:20;101470.72;;;12.10;100.00
19831;BME280;10076;52.008;4.708;2023-11-21T06:39:48;101466.81;;;12.16;100.00
19831;BME280;10076;52.008;4.708;2023-11-21T06:42:14;101472.31;;;12.25;100.00
19831;BME280;10076;52.008;4.708;2023-11-21T06:44:40;101483.78;;;12.26;100.00
19831;BME280;10076;52.008;4.708;2023-11-21T06:47:06;101491.00;;;11.97;100.00
19831;BME280;10076;52.008;4.708;2023-11-21T06:49:32;101495.34;;;11.98;100.00
19831;BME280;10076;52.008;4.708;2023-11-21T06:51:57;101493.63;;;11.97;100.00
19831;BME280;10076;52.008;4.708;2023-11-21T06:54:23;101503.38;;;11.97;100.00
19831;BME280;10076;52.008;4.708;2023-11-21T06:56:49;101499.56;;;11.88;100.00
19831;BME280;10076;52.008;4.708;2023-11-21T06:59:15;101512.72;;;12.02;100.00
19831;BME280;10076;52.008;4.708;2023-11-21T07:01:40;101515.72;;;12.10;100.00
19831;BME280;10076;52.008;4.708;2023-11-21T07:04:06;101522.31;;;12.17;100.00
19831;BME280;10076;52.008;4.708;2023-11-21T07:06:32;101521.91;;;12.23;100.00
19831;BME280;10076;52.008;4.708;2023-11-21T07:08:57;101514.38;;;12.17;100.00
19831;BME280;10076;52.008;4.708;2023-11-21T07:11:24;101527.09;;;12.25;100.00
19831;BME280;10076;52.008;4.708;2023-11-21T07:13:50;101532.09;;;12.29;100.00
19831;BME280;10076;52.008;4.708;2023-11-21T07:16:16;101539.09;;;12.30;100.00
19831;BME280;10076;52.008;4.708;2023-11-21T07:18:41;101528.50;;;12.42;100.00
19831;BME280;10076;52.008;4.708;2023-11-21T07:21:06;101530.97;;;12.58;100.00
19831;BME280;10076;52.008;4.708;2023-11-21T07:23:33;101535.13;;;12.62;100.00
19831;BME280;10076;52.008;4.708;2023-11-21T07:25:58;101540.81;;;12.56;100.00
19831;BME280;10076;52.008;4.708;2023-11-21T07:28:24;101538.59;;;12.50;100.00
19831;BME280;10076;52.008;4.708;2023-11-21T07:30:50;101551.84;;;12.50;100.00
19831;BME280;10076;52.008;4.708;2023-11-21T07:33:16;101554.81;;;12.58;100.00
19831;BME280;10076;52.008;4.708;2023-11-21T07:35:42;101566.47;;;12.55;100.00
19831;BME280;10076;52.008;4.708;2023-11-21T07:38:07;101566.03;;;12.49;100.00
19831;BME280;10076;52.008;4.708;2023-11-21T07:40:33;101571.13;;;12.52;100.00
19831;BME280;10076;52.008;4.708;2023-11-21T07:42:58;101563.59;;;12.58;100.00
19831;BME280;10076;52.008;4.708;2023-11-21T07:45:24;101573.25;;;12.59;100.00
19831;BME280;10076;52.008;4.708;2023-11-21T07:47:53;101571.13;;;12.52;100.00
19831;BME280;10076;52.008;4.708;2023-11-21T07:50:18;101585.97;;;12.54;100.00
19831;BME280;10076;52.008;4.708;2023-11-21T07:52:43;101591.59;;;12.62;100.00
19831;BME280;10076;52.008;4.708;2023-11-21T07:55:08;101594.47;;;12.72;100.00
19831;BME280;10076;52.008;4.708;2023-11-21T07:57:34;101589.09;;;12.73;100.00
19831;BME280;10076;52.008;4.708;2023-11-21T07:59:59;101594.47;;;12.72;100.00
19831;BME280;10076;52.008;4.708;2023-11-21T08:02:25;101600.75;;;12.83;100.00
19831;BME280;10076;52.008;4.708;2023-11-21T08:04:51;101604.50;;;12.93;100.00
19831;BME280;10076;52.008;4.708;2023-11-21T08:07:17;101608.03;;;12.94;100.00
19831;BME280;10076;52.008;4.708;2023-11-21T08:09:42;101607.16;;;12.93;100.00
19831;BME280;10076;52.008;4.708;2023-11-21T08:12:09;101611.09;;;12.88;100.00
19831;BME280;10076;52.008;4.708;2023-11-21T08:14:36;101625.94;;;12.90;100.00
19831;BME280;10076;52.008;4.708;2023-11-21T08:17:04;101616.50;;;12.99;100.00
19831;BME280;10076;52.008;4.708;2023-11-21T08:19:29;101618.63;;;12.94;100.00
19831;BME280;10076;52.008;4.708;2023-11-21T08:21:54;101622.31;;;12.91;100.00
19831;BME280;10076;52.008;4.708;2023-11-21T08:24:21;101630.84;;;13.09;100.00
19831;BME280;10076;52.008;4.708;2023-11-21T08:26:46;101636.25;;;13.07;100.00
19831;BME280;10076;52.008;4.708;2023-11-21T08:29:12;101628.06;;;12.98;100.00
19831;BME280;10076;52.008;4.708;2023-11-21T08:31:37;101634.03;;;13.01;100.00
19831;BME280;10076;52.008;4.708;2023-11-21T08:34:03;101645.56;;;13.00;100.00
19831;BME280;10076;52.008;4.708;2023-11-21T08:36:28;101641.44;;;13.21;100.00
19831;BME280;10076;52.008;4.708;2023-11-21T08:38:54;101640.78;;;13.17;100.00
19831;BME280;10076;52.008;4.708;2023-11-21T08:41:19;101644.97;;;13.21;100.00
19831;BME280;10076;52.008;4.708;2023-11-21T08:43:49;101648.88;;;13.16;100.00
19831;BME280;10076;52.008;4.708;2023-11-21T08:46:15;101642.91;;;13.12;100.00
19831;BME280;10076;52.008;4.708;2023-11-21T08:48:42;101652.69;;;13.12;100.00
19831;BME280;10076;52.008;4.708;2023-11-21T08:51:10;101654.41;;;13.50;100.00
19831;BME280;10076;52.008;4.708;2023-11-21T08:53:36;101659.72;;;13.50;100.00
19831;BME280;10076;52.008;4.708;2023-11-21T08:56:03;101656.94;;;13.52;100.00
19831;BME280;10076;52.008;4.708;2023-11-21T08:58:29;101652.25;;;13.80;100.00
19831;BME280;10076;52.008;4.708;2023-11-21T09:00:55;101651.28;;;13.81;100.00
19831;BME280;10076;52.008;4.708;2023-11-21T09:03:21;101659.25;;;13.93;100.00
19831;BME280;10076;52.008;4.708;2023-11-21T09:05:46;101660.50;;;13.88;100.00
19831;BME280;10076;52.008;4.708;2023-11-21T09:08:12;101669.00;;;13.93;100.00
19831;BME280;10076;52.008;4.708;2023-11-21T09:10:37;101672.41;;;13.95;100.00
19831;BME280;10076;52.008;4.708;2023-11-21T09:13:02;101676.63;;;14.10;100.00
19831;BME280;10076;52.008;4.708;2023-11-21T09:15:28;101688.31;;;14.20;100.00
19831;BME280;10076;52.008;4.708;2023-11-21T09:17:53;101693.84;;;14.29;100.00
19831;BME280;10076;52.008;4.708;2023-11-21T09:20:18;101695.34;;;14.21;100.00
19831;BME280;10076;52.008;4.708;2023-11-21T09:22:47;101696.19;;;14.21;100.00
19831;BME280;10076;52.008;4.708;2023-11-21T09:25:12;101698.44;;;14.15;100.00
19831;BME280;10076;52.008;4.708;2023-11-21T09:27:37;101704.91;;;14.11;100.00
19831;BME280;10076;52.008;4.708;2023-11-21T09:30:03;101710.97;;;14.13;100.00
19831;BME280;10076;52.008;4.708;2023-11-21T09:32:30;101707.88;;;14.19;100.00
19831;BME280;10076;52.008;4.708;2023-11-21T09:34:55;101716.34;;;14.24;100.00
19831;BME280;10076;52.008;4.708;2023-11-21T09:37:23;101719.09;;;14.35;100.00
19831;BME280;10076;52.008;4.708;2023-11-21T09:39:49;101722.00;;;14.19;100.00
19831;BME280;10076;52.008;4.708;2023-11-21T09:42:36;101725.09;;;14.13;100.00
19831;BME280;10076;52.008;4.708;2023-11-21T09:45:20;101739.94;;;14.03;100.00
19831;BME280;10076;52.008;4.708;2023-11-21T09:47:49;101740.59;;;13.94;100.00
19831;BME280;10076;52.008;4.708;2023-11-21T09:50:17;101751.88;;;13.98;100.00
19831;BME280;10076;52.008;4.708;2023-11-21T09:53:01;101752.59;;;14.00;100.00
19831;BME280;10076;52.008;4.708;2023-11-21T09:55:30;101761.72;;;13.96;100.00
19831;BME280;10076;52.008;4.708;2023-11-21T09:58:02;101765.56;;;14.04;100.00
19831;BME280;10076;52.008;4.708;2023-11-21T10:00:28;101768.22;;;14.04;100.00
19831;BME280;10076;52.008;4.708;2023-11-21T10:02:57;101768.75;;;14.09;100.00
19831;BME280;10076;52.008;4.708;2023-11-21T10:05:23;101777.56;;;13.97;100.00
19831;BME280;10076;52.008;4.708;2023-11-21T10:07:50;101779.06;;;13.77;100.00
19831;BME280;10076;52.008;4.708;2023-11-21T10:10:19;101775.44;;;13.78;100.00
19831;BME280;10076;52.008;4.708;2023-11-21T10:12:54;101789.34;;;13.81;100.00
19831;BME280;10076;52.008;4.708;2023-11-21T10:15:24;101790.50;;;13.77;100.00
19831;BME280;10076;52.008;4.708;2023-11-21T10:17:53;101805.38;;;13.67;100.00
19831;BME280;10076;52.008;4.708;2023-11-21T10:20:20;101810.38;;;13.96;100.00
19831;BME280;10076;52.008;4.708;2023-11-21T10:22:45;101810.72;;;13.92;100.00
19831;BME280;10076;52.008;4.708;2023-11-21T10:25:11;101807.06;;;13.80;100.00
19831;BME280;10076;52.008;4.708;2023-11-21T10:27:40;101818.28;;;13.59;100.00
19831;BME280;10076;52.008;4.708;2023-11-21T10:30:07;101822.94;;;13.56;100.00
19831;BME280;10076;52.008;4.708;2023-11-21T10:32:33;101829.41;;;13.39;100.00
19831;BME280;10076;52.008;4.708;2023-11-21T10:34:59;101832.72;;;13.43;100.00
19831;BME280;10076;52.008;4.708;2023-11-21T10:37:34;101832.19;;;13.50;100.00
19831;BME280;10076;52.008;4.708;2023-11-21T10:40:00;101837.81;;;13.58;100.00
19831;BME280;10076;52.008;4.708;2023-11-21T10:42:25;101841.88;;;13.51;100.00
19831;BME280;10076;52.008;4.708;2023-11-21T10:44:52;101847.75;;;13.81;100.00
19831;BME280;10076;52.008;4.708;2023-11-21T10:47:19;101852.91;;;13.70;100.00
19831;BME280;10076;52.008;4.708;2023-11-21T10:49:47;101851.88;;;13.73;100.00
19831;BME280;10076;52.008;4.708;2023-11-21T10:52:13;101859.28;;;13.68;100.00
19831;BME280;10076;52.008;4.708;2023-11-21T10:54:42;101863.22;;;13.62;100.00
19831;BME280;10076;52.008;4.708;2023-11-21T10:57:08;101865.91;;;13.75;100.00
19831;BME280;10076;52.008;4.708;2023-11-21T10:59:34;101864.66;;;13.80;100.00
19831;BME280;10076;52.008;4.708;2023-11-21T11:02:01;101865.66;;;13.65;100.00
19831;BME280;10076;52.008;4.708;2023-11-21T11:04:28;101874.97;;;13.58;100.00
19831;BME280;10076;52.008;4.708;2023-11-21T11:06:57;101873.38;;;13.56;100.00
19831;BME280;10076;52.008;4.708;2023-11-21T11:09:27;101870.56;;;13.71;100.00
19831;BME280;10076;52.008;4.708;2023-11-21T11:11:52;101871.38;;;13.59;100.00
19831;BME280;10076;52.008;4.708;2023-11-21T11:14:19;101870.97;;;13.65;100.00
19831;BME280;10076;52.008;4.708;2023-11-21T11:16:45;101879.88;;;13.64;100.00
19831;BME280;10076;52.008;4.708;2023-11-21T11:19:10;101872.25;;;13.72;100.00
19831;BME280;10076;52.008;4.708;2023-11-21T11:21:53;101866.72;;;13.75;100.00
19831;BME280;10076;52.008;4.708;2023-11-21T11:36:02;101867.91;;;13.83;100.00
19831;BME280;10076;52.008;4.708;2023-11-21T11:38:32;101872.94;;;13.88;100.00
19831;BME280;10076;52.008;4.708;2023-11-21T11:41:01;101868.91;;;13.95;100.00
19831;BME280;10076;52.008;4.708;2023-11-21T11:43:29;101870.31;;;14.00;100.00
19831;BME280;10076;52.008;4.708;2023-11-21T11:45:58;101867.09;;;13.95;100.00
19831;BME280;10076;52.008;4.708;2023-11-21T11:48:28;101881.88;;;13.99;100.00
19831;BME280;10076;52.008;4.708;2023-11-21T11:51:04;101887.19;;;13.99;100.00
19831;BME280;10076;52.008;4.708;2023-11-21T11:53:35;101884.72;;;13.96;100.00
19831;BME280;10076;52.008;4.708;2023-11-21T11:58:52;101887.91;;;14.01;100.00
19831;BME280;10076;52.008;4.708;2023-11-21T12:01:19;101889.13;;;14.10;100.00
19831;BME280;10076;52.008;4.708;2023-11-21T12:03:45;101895.53;;;14.32;100.00
19831;BME280;10076;52.008;4.708;2023-11-21T12:06:34;101905.09;;;14.35;100.00
19831;BME280;10076;52.008;4.708;2023-11-21T12:09:02;101913.81;;;14.49;100.00
19831;BME280;10076;52.008;4.708;2023-11-21T12:11:31;101912.31;;;14.33;100.00
19831;BME280;10076;52.008;4.708;2023-11-21T12:13:56;101913.59;;;14.40;100.00
19831;BME280;10076;52.008;4.708;2023-11-21T12:16:25;101915.72;;;14.22;100.00
19831;BME280;10076;52.008;4.708;2023-11-21T12:18:52;101912.69;;;14.02;100.00
19831;BME280;10076;52.008;4.708;2023-11-21T12:21:19;101917.06;;;14.03;100.00
19831;BME280;10076;52.008;4.708;2023-11-21T12:23:45;101916.19;;;14.02;100.00
19831;BME280;10076;52.008;4.708;2023-11-21T12:26:12;101928.28;;;13.94;100.00
19831;BME280;10076;52.008;4.708;2023-11-21T12:28:38;101929.97;;;13.82;100.00
19831;BME280;10076;52.008;4.708;2023-11-21T12:31:03;101928.66;;;13.76;100.00
19831;BME280;10076;52.008;4.708;2023-11-21T12:33:32;101936.31;;;13.80;100.00
19831;BME280;10076;52.008;4.708;2023-11-21T12:35:57;101948.16;;;14.01;100.00
19831;BME280;10076;52.008;4.708;2023-11-21T12:38:23;101942.06;;;14.13;100.00
19831;BME280;10076;52.008;4.708;2023-11-21T12:40:50;101952.03;;;14.22;100.00
19831;BME280;10076;52.008;4.708;2023-11-21T12:43:17;101950.16;;;14.24;100.00
19831;BME280;10076;52.008;4.708;2023-11-21T12:45:43;101945.28;;;14.43;100.00
19831;BME280;10076;52.008;4.708;2023-11-21T12:48:09;101958.22;;;14.22;100.00
19831;BME280;10076;52.008;4.708;2023-11-21T12:50:37;101950.19;;;14.49;100.00